createdAt,value
2023-02-11T00:02:08.327Z,6.25
2023-02-11T00:07:29.839Z,6.00
2023-02-11T00:12:50.621Z,5.38
2023-02-11T00:18:11.606Z,7.90
2023-02-11T00:23:32.450Z,6.05
2023-02-11T00:28:53.951Z,4.15
2023-02-11T00:34:14.692Z,8.32
2023-02-11T00:39:35.115Z,5.97
2023-02-11T00:44:57.127Z,5.55
2023-02-11T00:50:17.972Z,6.93
2023-02-11T00:55:38.516Z,2.75
2023-02-11T01:00:59.282Z,5.80
2023-02-11T01:06:19.939Z,5.35
2023-02-11T01:11:40.792Z,3.70
2023-02-11T01:17:01.258Z,7.75
2023-02-11T01:22:22.075Z,6.53
2023-02-11T01:27:43.186Z,7.78
2023-02-11T01:33:03.980Z,5.80
2023-02-11T01:38:26.341Z,4.93
2023-02-11T01:43:49.760Z,5.78
2023-02-11T01:49:20.704Z,7.50
2023-02-11T01:55:06.691Z,5.57
2023-02-11T02:00:39.655Z,5.68
2023-02-11T02:06:08.387Z,3.83
2023-02-11T02:11:29.267Z,7.50
2023-02-11T02:16:50.475Z,7.97
2023-02-11T02:22:24.506Z,3.75
2023-02-11T02:27:55.388Z,5.30
2023-02-11T02:33:30.205Z,5.93
2023-02-11T02:39:07.583Z,7.05
2023-02-11T02:44:31.378Z,4.20
2023-02-11T02:49:54.152Z,5.30
2023-02-11T02:55:36.808Z,4.78
2023-02-11T03:01:08.005Z,6.07
2023-02-11T03:06:33.961Z,5.18
2023-02-11T03:11:54.906Z,5.63
2023-02-11T03:17:16.906Z,4.28
2023-02-11T03:23:08.845Z,5.82
2023-02-11T03:28:30.216Z,5.82
2023-02-11T03:34:02.411Z,5.53
2023-02-11T03:39:33.235Z,5.40
2023-02-11T03:44:59.908Z,4.35
2023-02-11T03:50:22.050Z,5.60
2023-02-11T03:55:43.806Z,5.28
2023-02-11T04:01:05.148Z,4.38
2023-02-11T04:06:26.635Z,5.82
2023-02-11T04:11:47.324Z,4.45
2023-02-11T04:17:07.779Z,4.32
2023-02-11T04:22:28.102Z,4.18
2023-02-11T04:27:52.286Z,4.60
2023-02-11T04:33:12.949Z,4.43
2023-02-11T04:38:33.575Z,3.55
2023-02-11T04:43:54.548Z,3.08
2023-02-11T04:49:16.581Z,5.90
2023-02-11T05:03:51.809Z,4.63
2023-02-11T05:09:13.199Z,3.58
2023-02-11T05:14:33.578Z,3.42
2023-02-11T05:19:54.033Z,4.10
2023-02-11T05:25:14.816Z,5.55
2023-02-11T05:30:37.358Z,4.47
2023-02-11T05:36:03.462Z,3.78
2023-02-11T05:41:24.944Z,2.47
2023-02-11T05:46:45.830Z,4.07
2023-02-11T05:52:06.249Z,5.40
2023-02-11T05:57:27.093Z,3.70
2023-02-11T06:02:47.723Z,5.88
2023-02-11T06:08:08.206Z,6.05
2023-02-11T06:13:28.929Z,5.80
2023-02-11T06:18:49.217Z,4.38
2023-02-11T06:24:10.034Z,5.28
2023-02-11T06:29:30.712Z,5.30
2023-02-11T06:34:51.478Z,3.15
2023-02-11T06:40:12.986Z,5.50
2023-02-11T06:45:33.851Z,4.13
2023-02-11T06:50:54.559Z,3.20
2023-02-11T06:56:20.622Z,4.82
2023-02-11T07:01:41.051Z,7.82
2023-02-11T07:07:01.624Z,6.10
2023-02-11T07:12:22.240Z,4.95
2023-02-11T07:17:42.681Z,4.70
2023-02-11T07:23:03.068Z,7.03
2023-02-11T07:28:23.751Z,4.90
2023-02-11T07:33:45.958Z,5.45
2023-02-11T07:39:06.618Z,4.18
2023-02-11T07:44:26.989Z,6.82
2023-02-11T07:49:47.684Z,5.25
2023-02-11T07:55:09.936Z,6.32
2023-02-11T08:00:30.792Z,6.80
2023-02-11T08:05:51.614Z,3.67
2023-02-11T08:11:21.739Z,5.03
2023-02-11T08:16:43.787Z,5.50
2023-02-11T08:22:04.311Z,5.32
2023-02-11T08:27:26.734Z,3.83
2023-02-11T08:32:47.390Z,6.20
2023-02-11T08:38:08.900Z,3.05
2023-02-11T08:43:29.434Z,6.28
2023-02-11T08:48:51.377Z,6.20
2023-02-11T08:54:12.534Z,4.85
2023-02-11T08:59:33.290Z,6.15
2023-02-11T09:04:54.009Z,6.90
2023-02-11T09:10:14.744Z,5.05
2023-02-11T09:15:35.863Z,7.05
2023-02-11T09:21:04.823Z,6.72
2023-02-11T09:26:28.285Z,6.00
2023-02-11T09:31:51.445Z,6.10
2023-02-11T09:37:12.054Z,6.07
2023-02-11T09:43:02.358Z,4.43
2023-02-11T09:48:24.763Z,5.03
2023-02-11T09:53:45.770Z,4.47
2023-02-11T09:59:13.777Z,3.85
2023-02-11T10:04:53.938Z,4.10
2023-02-11T10:10:33.017Z,4.97
2023-02-11T10:16:18.331Z,4.53
2023-02-11T10:22:00.500Z,3.72
2023-02-11T10:27:28.526Z,4.38
2023-02-11T10:32:53.940Z,4.78
2023-02-11T10:38:14.922Z,6.32
2023-02-11T10:43:36.976Z,3.20
2023-02-11T10:48:57.369Z,4.55
2023-02-11T10:54:21.137Z,5.60
2023-02-11T10:59:42.059Z,4.20
2023-02-11T11:05:14.729Z,5.60
2023-02-11T11:11:03.587Z,4.32
2023-02-11T11:16:35.262Z,5.68
2023-02-11T11:21:56.893Z,5.40
2023-02-11T11:27:21.877Z,4.68
2023-02-11T11:32:43.381Z,4.95
2023-02-11T11:38:05.566Z,3.28
2023-02-11T11:43:26.090Z,5.13
2023-02-11T11:48:50.241Z,3.60
2023-02-11T11:54:17.731Z,5.03
2023-02-11T11:59:38.581Z,4.60
2023-02-11T12:05:22.609Z,4.25
2023-02-11T12:10:52.928Z,3.65
2023-02-11T12:16:29.386Z,3.45
2023-02-11T12:22:07.959Z,3.92
2023-02-11T12:27:37.993Z,3.78
2023-02-11T12:33:25.177Z,3.35
2023-02-11T12:39:04.336Z,5.45
2023-02-11T12:44:45.373Z,3.58
2023-02-11T12:50:27.369Z,3.90
2023-02-11T12:55:56.203Z,2.83
2023-02-11T13:01:22.893Z,2.00
2023-02-11T13:06:57.558Z,3.42
2023-02-11T13:12:37.393Z,2.67
2023-02-11T13:18:30.639Z,3.35
2023-02-11T13:23:58.876Z,2.97
2023-02-11T13:29:56.101Z,3.53
2023-02-11T13:35:37.669Z,3.78
2023-02-11T13:41:02.773Z,4.82
2023-02-11T13:46:24.154Z,4.10
2023-02-11T13:51:45.116Z,4.53
2023-02-11T13:57:21.323Z,4.18
2023-02-11T14:03:00.889Z,4.60
2023-02-11T14:08:44.443Z,4.45
2023-02-11T14:14:16.218Z,4.18
2023-02-11T14:19:46.002Z,4.40
2023-02-11T14:25:20.348Z,4.18
2023-02-11T14:30:49.176Z,4.37
2023-02-11T14:36:28.820Z,3.22
2023-02-11T14:41:51.171Z,2.72
2023-02-11T14:47:28.345Z,4.55
2023-02-11T14:52:49.461Z,3.83
2023-02-11T14:58:24.050Z,3.22
2023-02-11T15:03:48.748Z,3.40
2023-02-11T15:09:27.991Z,4.18
2023-02-11T15:14:51.619Z,2.53
2023-02-11T15:20:31.806Z,1.30
2023-02-11T15:25:55.875Z,1.58
2023-02-11T15:31:19.064Z,2.08
2023-02-11T15:36:40.939Z,3.42
2023-02-11T15:42:27.886Z,2.45
2023-02-11T15:47:54.202Z,2.75
2023-02-11T15:53:30.897Z,2.03
2023-02-11T15:58:58.273Z,2.03
2023-02-11T16:04:24.484Z,9.88
2023-02-11T16:09:45.240Z,10.40
2023-02-11T16:15:35.227Z,7.65
2023-02-11T16:20:56.661Z,3.22
2023-02-11T16:26:41.802Z,2.83
2023-02-11T16:32:28.037Z,6.47
2023-02-11T16:37:48.650Z,2.40
2023-02-11T16:43:09.122Z,1.42
2023-02-11T16:48:32.326Z,1.83
2023-02-11T16:53:53.104Z,2.10
2023-02-11T16:59:13.692Z,1.85
2023-02-11T17:04:35.381Z,2.53
2023-02-11T17:09:56.672Z,1.40
2023-02-11T17:15:17.585Z,2.03
2023-02-11T17:20:41.735Z,1.65
2023-02-11T17:26:02.053Z,2.47
2023-02-11T17:31:23.225Z,2.58
2023-02-11T17:36:44.439Z,2.70
2023-02-11T17:42:06.252Z,3.58
2023-02-11T17:47:29.281Z,2.33
2023-02-11T17:52:57.145Z,2.17
2023-02-11T17:58:18.146Z,3.35
2023-02-11T18:03:38.979Z,2.03
2023-02-11T18:09:02.163Z,1.48
2023-02-11T18:14:23.058Z,1.23
2023-02-11T18:19:43.458Z,2.15
2023-02-11T18:25:04.733Z,2.15
2023-02-11T18:30:25.753Z,2.03
2023-02-11T18:35:49.033Z,2.47
2023-02-11T18:41:10.526Z,1.60
2023-02-11T18:46:31.338Z,2.05
2023-02-11T18:51:51.636Z,1.50
2023-02-11T18:57:11.969Z,1.33
2023-02-11T19:02:32.441Z,1.60
2023-02-11T19:07:52.664Z,1.00
2023-02-11T19:13:14.202Z,2.03
2023-02-11T19:18:35.949Z,1.38
2023-02-11T19:23:56.278Z,0.98
2023-02-11T19:29:17.736Z,0.77
2023-02-11T19:34:41.475Z,1.65
2023-02-11T19:40:02.223Z,1.90
2023-02-11T19:45:22.602Z,1.58
2023-02-11T19:50:42.952Z,3.35
2023-02-11T19:56:07.884Z,3.50
2023-02-11T20:01:28.721Z,5.28
2023-02-11T20:06:49.390Z,3.22
2023-02-11T20:12:11.923Z,3.05
2023-02-11T20:17:34.909Z,2.58
2023-02-11T20:22:55.481Z,2.88
2023-02-11T20:28:16.947Z,3.90
2023-02-11T20:33:40.645Z,3.13
2023-02-11T20:39:02.771Z,2.93
2023-02-11T20:44:28.776Z,2.85
2023-02-11T20:49:49.897Z,3.05
2023-02-11T20:55:13.771Z,2.75
2023-02-11T21:00:39.412Z,2.47
2023-02-11T21:06:00.001Z,3.30
2023-02-11T21:11:23.901Z,1.97
2023-02-11T21:16:45.605Z,2.78
2023-02-11T21:22:09.698Z,2.55
2023-02-11T21:27:33.261Z,3.50
2023-02-11T21:32:55.539Z,3.15
2023-02-11T21:38:19.036Z,3.58
2023-02-11T21:43:39.673Z,5.03
2023-02-11T21:49:00.362Z,4.10
2023-02-11T21:54:20.897Z,5.18
2023-02-11T21:59:41.700Z,3.85
2023-02-11T22:05:02.667Z,4.05
2023-02-11T22:10:27.096Z,4.03
2023-02-11T22:16:00.198Z,4.88
2023-02-11T22:21:23.156Z,2.53
2023-02-11T22:26:47.955Z,4.13
2023-02-11T22:32:10.256Z,4.32
2023-02-11T22:37:31.269Z,3.97
2023-02-11T22:42:53.095Z,4.03
2023-02-11T22:48:13.575Z,2.80
2023-02-11T22:53:35.036Z,4.05
2023-02-11T22:59:15.144Z,2.70
2023-02-11T23:04:38.479Z,4.10
2023-02-11T23:10:01.376Z,3.45
2023-02-11T23:15:24.894Z,3.03
2023-02-11T23:20:54.356Z,3.20
2023-02-11T23:26:25.286Z,3.38
2023-02-11T23:31:47.214Z,3.97
2023-02-11T23:37:08.395Z,3.30
2023-02-11T23:42:29.252Z,3.45
2023-02-11T23:47:50.032Z,2.83
2023-02-11T23:53:11.399Z,4.05
2023-02-11T23:58:32.050Z,3.58
